Time;durP1;ratioP1;P1;durP2;ratioP2;P2;SDS_P1;SDS_P2;PMS_P1;PMS_P2;Temp;Humidity;BMP_temperature;BMP_pressure;BME280_temperature;BME280_humidity;BME280_pressure;Samples;Min_cycle;Max_cycle;Signal;HPM_P1;HPM_P2
2021/10/08 00:00:01;;;;;;;;;9.25;9.25;;;;;16.47;58.02;102211.09;2091822;28;48351;-46
2021/10/08 00:01:01;;;;;;;;;13.00;10.00;;;;;16.46;58.03;102212.00;2092452;28;47050;-47
2021/10/08 00:02:02;;;;;;;;;11.50;9.50;;;;;16.45;58.11;102210.25;2092345;28;47134;-48
2021/10/08 00:03:02;;;;;;;;;9.40;9.40;;;;;16.45;57.97;102211.13;2092284;28;47232;-47
2021/10/08 00:04:03;;;;;;;;;12.00;11.50;;;;;16.44;58.20;102205.81;2092223;28;47246;-46
2021/10/08 00:05:04;;;;;;;;;12.50;12.50;;;;;16.43;58.13;102207.59;2091754;28;47331;-49
2021/10/08 00:06:05;;;;;;;;;9.60;9.20;;;;;16.43;57.81;102212.97;2083602;28;48301;-46
2021/10/08 00:07:05;;;;;;;;;4.75;4.75;;;;;16.42;58.35;102207.63;2091376;28;47883;-46
2021/10/08 00:08:06;;;;;;;;;9.75;9.75;;;;;16.42;58.18;102211.19;2092458;28;48324;-46
2021/10/08 00:09:06;;;;;;;;;10.00;10.00;;;;;16.40;58.04;102209.47;2091969;28;48284;-47
2021/10/08 00:10:08;;;;;;;;;8.75;8.75;;;;;16.39;58.33;102211.28;2092511;28;48190;-47
2021/10/08 00:11:09;;;;;;;;;11.20;11.20;;;;;16.39;58.34;102210.41;2092175;28;47804;-46
2021/10/08 00:12:09;;;;;;;;;12.80;11.00;;;;;16.37;58.13;102209.53;2092334;28;47162;-50
2021/10/08 00:13:10;;;;;;;;;9.75;9.75;;;;;16.35;58.10;102212.25;2091602;28;48200;-45
2021/10/08 00:14:11;;;;;;;;;13.50;13.50;;;;;16.35;58.55;102214.91;2083310;28;47494;-47
2021/10/08 00:15:14;;;;;;;;;9.60;9.60;;;;;16.35;58.13;102211.34;2091642;28;46754;-46
2021/10/08 00:16:15;;;;;;;;;8.80;8.80;;;;;16.34;58.21;102213.16;2092285;28;47525;-46
2021/10/08 00:17:15;;;;;;;;;8.50;8.50;;;;;16.34;58.19;102212.28;2092193;28;48475;-48
2021/10/08 00:18:16;;;;;;;;;10.50;10.50;;;;;16.33;58.75;102214.06;2093629;28;47954;-47
2021/10/08 00:19:17;;;;;;;;;9.25;9.25;;;;;16.32;58.78;102212.31;2099908;28;46818;-47
2021/10/08 00:20:18;;;;;;;;;10.00;10.00;;;;;16.30;58.35;102214.16;2094585;28;47179;-48
2021/10/08 00:21:18;;;;;;;;;10.00;9.60;;;;;16.29;58.72;102212.38;2092235;28;47439;-47
2021/10/08 00:22:19;;;;;;;;;10.75;10.75;;;;;16.29;58.81;102207.03;2092134;28;47406;-50
2021/10/08 00:23:20;;;;;;;;;8.00;8.00;;;;;16.29;58.85;102212.38;2092065;28;47981;-46
2021/10/08 00:24:20;;;;;;;;;12.75;12.50;;;;;16.28;58.53;102202.59;2091564;28;47107;-46
2021/10/08 00:25:21;;;;;;;;;9.00;9.00;;;;;16.28;58.42;102209.75;2091403;28;48106;-47
2021/10/08 00:26:21;;;;;;;;;10.75;9.25;;;;;16.28;58.21;102207.94;2099925;28;48132;-48
2021/10/08 00:27:22;;;;;;;;;14.25;13.25;;;;;16.27;58.36;102210.66;2100045;28;47142;-47
2021/10/08 00:28:22;;;;;;;;;12.50;12.25;;;;;16.27;58.43;102219.56;2091635;28;47329;-45
2021/10/08 00:29:23;;;;;;;;;13.00;11.00;;;;;16.27;58.62;102208.88;2091488;28;46931;-49
2021/10/08 00:30:24;;;;;;;;;8.50;8.25;;;;;16.26;58.91;102219.59;2092368;28;46254;-47
2021/10/08 00:31:25;;;;;;;;;11.00;9.75;;;;;16.27;58.63;102216.03;2092186;28;47305;-48
2021/10/08 00:32:25;;;;;;;;;10.40;10.20;;;;;16.25;58.68;102207.09;2089901;28;48580;-48
2021/10/08 00:33:26;;;;;;;;;7.25;7.25;;;;;16.26;58.49;102217.81;2088312;28;45907;-47
2021/10/08 00:34:26;;;;;;;;;11.25;10.75;;;;;16.24;58.35;102211.59;2091323;28;48162;-50
2021/10/08 00:35:27;;;;;;;;;8.00;8.00;;;;;16.23;58.37;102215.19;2091527;28;47011;-48
2021/10/08 00:36:27;;;;;;;;;10.50;9.00;;;;;16.24;58.87;102218.75;2092343;28;48479;-46
2021/10/08 00:37:28;;;;;;;;;7.75;7.50;;;;;16.23;58.39;102212.50;2091850;28;46556;-48
2021/10/08 00:38:28;;;;;;;;;12.25;12.25;;;;;16.23;58.49;102215.19;2091700;28;47267;-47
2021/10/08 00:39:29;;;;;;;;;7.00;5.75;;;;;16.23;58.42;102212.50;2092011;28;46726;-47
2021/10/08 00:40:35;;;;;;;;;11.00;9.50;;;;;16.22;58.64;102215.22;2091517;28;47295;-48
2021/10/08 00:41:36;;;;;;;;;10.00;10.00;;;;;16.21;58.76;102219.69;2091581;28;47455;-47
2021/10/08 00:42:36;;;;;;;;;10.75;10.75;;;;;16.22;58.57;102220.56;2091620;28;48237;-47
2021/10/08 00:43:37;;;;;;;;;8.50;8.25;;;;;16.21;58.84;102214.34;2091144;28;48152;-49
2021/10/08 00:44:37;;;;;;;;;9.00;9.00;;;;;16.20;58.76;102217.94;2092233;28;47021;-47
2021/10/08 00:45:38;;;;;;;;;9.25;9.25;;;;;16.19;58.89;102217.06;2092017;28;46079;-49
2021/10/08 00:46:39;;;;;;;;;12.50;9.75;;;;;16.19;58.91;102224.19;2092255;28;47215;-46
2021/10/08 00:47:40;;;;;;;;;11.00;11.00;;;;;16.19;58.60;102217.06;2092143;28;47095;-47
2021/10/08 00:48:41;;;;;;;;;11.75;11.25;;;;;16.19;58.88;102219.72;2091665;28;47112;-47
2021/10/08 00:49:41;;;;;;;;;10.60;10.60;;;;;16.18;58.72;102214.41;2091238;28;47073;-46
2021/10/08 00:50:48;;;;;;;;;8.75;8.50;;;;;16.17;58.99;102221.56;2092062;28;47234;-48
2021/10/08 00:51:49;;;;;;;;;11.40;11.40;;;;;16.17;58.67;102223.34;2091790;28;47304;-47
2021/10/08 00:52:49;;;;;;;;;10.75;10.50;;;;;16.15;59.14;102219.84;2091365;28;45987;-50
2021/10/08 00:53:50;;;;;;;;;11.25;10.75;;;;;16.14;58.88;102216.28;2090864;28;48066;-50
2021/10/08 00:54:50;;;;;;;;;10.50;9.00;;;;;16.14;59.02;102218.06;2091251;28;47060;-49
2021/10/08 00:55:52;;;;;;;;;10.00;10.00;;;;;16.13;58.74;102217.19;2091949;28;45410;-49
2021/10/08 00:56:53;;;;;;;;;9.20;9.00;;;;;16.14;58.65;102218.06;2092024;28;46337;-49
2021/10/08 00:57:54;;;;;;;;;9.80;9.80;;;;;16.13;58.80;102221.63;2091880;28;47416;-45
2021/10/08 00:58:55;;;;;;;;;13.80;12.80;;;;;16.12;59.21;102226.09;2092198;28;46239;-50
2021/10/08 00:59:56;;;;;;;;;12.50;11.25;;;;;16.12;58.97;102227.91;2091075;28;47493;-48
2021/10/08 01:00:56;;;;;;;;;10.40;10.00;;;;;16.11;59.20;102232.38;2091460;28;47006;-47
2021/10/08 01:01:57;;;;;;;;;10.75;8.75;;;;;16.12;58.85;102227.91;2091258;28;48312;-47
2021/10/08 01:02:57;;;;;;;;;14.25;12.25;;;;;16.09;59.01;102220.81;2091121;28;48191;-49
2021/10/08 01:03:58;;;;;;;;;9.25;9.25;;;;;16.10;59.09;102222.59;2091820;28;47309;-48
2021/10/08 01:04:58;;;;;;;;;11.75;10.50;;;;;16.09;59.03;102225.31;2092059;28;47129;-46
2021/10/08 01:05:59;;;;;;;;;9.50;9.50;;;;;16.08;58.72;102224.41;2091803;28;48042;-45
2021/10/08 01:06:59;;;;;;;;;13.25;12.00;;;;;16.07;59.35;102219.97;2092119;28;47355;-50
2021/10/08 01:08:00;;;;;;;;;8.00;8.00;;;;;16.08;58.91;102232.47;2091571;28;47200;-49
2021/10/08 01:09:00;;;;;;;;;10.75;10.75;;;;;16.07;59.18;102227.13;2091181;28;47796;-47
2021/10/08 01:10:01;;;;;;;;;12.00;10.50;;;;;16.07;59.01;102235.16;2091227;28;47145;-46
2021/10/08 01:11:03;;;;;;;;;13.40;11.60;;;;;16.06;59.56;102234.28;2091352;28;47904;-50
2021/10/08 01:12:06;;;;;;;;;12.80;10.80;;;;;16.06;58.85;102230.72;2083140;28;45396;-48
2021/10/08 01:13:08;;;;;;;;;11.00;11.00;;;;;16.05;59.02;102228.97;2083134;28;47533;-49
2021/10/08 01:14:08;;;;;;;;;13.00;10.00;;;;;16.04;59.14;102225.41;2091336;28;47421;-50
2021/10/08 01:15:09;;;;;;;;;10.25;10.25;;;;;16.04;59.26;102227.22;2091823;28;47191;-48
2021/10/08 01:16:10;;;;;;;;;11.50;10.75;;;;;16.03;59.23;102222.75;2091737;28;47180;-49
2021/10/08 01:17:12;;;;;;;;;10.00;9.67;;;;;16.02;59.27;102221.00;2091712;28;47885;-48
2021/10/08 01:18:13;;;;;;;;;14.00;14.00;;;;;16.01;58.91;102224.59;2085502;28;48687;-47
2021/10/08 01:19:13;;;;;;;;;11.50;10.50;;;;;15.99;59.20;102215.69;2097574;27;48192;-46
2021/10/08 01:20:14;;;;;;;;;10.75;10.75;;;;;16.00;59.00;102225.47;2092821;27;47619;-47
2021/10/08 01:21:14;;;;;;;;;9.75;8.75;;;;;15.98;59.37;102221.97;2090609;28;48067;-49
2021/10/08 01:22:15;;;;;;;;;13.25;11.50;;;;;15.98;59.10;102225.50;2088748;28;48162;-48
2021/10/08 01:23:15;;;;;;;;;9.25;9.25;;;;;15.97;59.32;102218.41;2091106;28;47240;-48
2021/10/08 01:24:16;;;;;;;;;11.50;11.50;;;;;15.97;59.05;102223.75;2091799;28;48156;-50
2021/10/08 01:25:16;;;;;;;;;10.75;10.75;;;;;15.95;59.04;102222.03;2090881;28;47328;-48
2021/10/08 01:26:17;;;;;;;;;9.75;9.75;;;;;15.96;59.42;102221.13;2081553;28;46982;-49
2021/10/08 01:27:18;;;;;;;;;9.50;9.50;;;;;15.95;59.04;102222.03;2090395;28;47487;-48
2021/10/08 01:28:21;;;;;;;;;12.40;11.00;;;;;15.94;59.38;102223.81;2088074;28;45212;-47
2021/10/08 01:29:22;;;;;;;;;10.20;10.20;;;;;15.93;59.47;102216.72;2091679;28;46494;-50
2021/10/08 01:30:24;;;;;;;;;10.25;10.25;;;;;15.93;59.58;102218.50;2091910;28;46484;-46
2021/10/08 01:31:25;;;;;;;;;11.60;11.60;;;;;15.91;59.38;102218.53;2091595;28;45506;-51
2021/10/08 01:32:27;;;;;;;;;11.75;11.75;;;;;15.92;59.60;102224.78;2092012;28;46606;-48
2021/10/08 01:33:28;;;;;;;;;12.20;11.20;;;;;15.87;59.44;102217.69;2091508;28;47610;-47
2021/10/08 01:34:28;;;;;;;;;10.75;9.75;;;;;15.87;59.16;102223.03;2091863;28;47311;-51
2021/10/08 01:35:28;;;;;;;;;9.50;9.50;;;;;15.86;59.08;102223.06;2090986;28;46985;-48
2021/10/08 01:36:30;;;;;;;;;14.75;13.00;;;;;15.85;59.24;102219.53;2091241;28;48230;-48
2021/10/08 01:37:31;;;;;;;;;12.20;11.20;;;;;15.84;59.58;102217.75;2090786;28;48265;-46
2021/10/08 01:38:31;;;;;;;;;14.50;14.50;;;;;15.82;59.13;102219.59;2079714;28;47612;-47
2021/10/08 01:39:32;;;;;;;;;12.50;12.50;;;;;15.83;59.37;102223.16;2088489;28;48717;-47
2021/10/08 01:40:33;;;;;;;;;14.00;12.00;;;;;15.81;59.51;102220.50;2090214;28;47896;-48
2021/10/08 01:41:34;;;;;;;;;15.40;14.20;;;;;15.81;59.18;102224.97;2091562;28;48423;-45
2021/10/08 01:42:34;;;;;;;;;12.00;10.50;;;;;15.81;59.82;102219.63;2091935;28;48340;-48
2021/10/08 01:43:35;;;;;;;;;13.00;13.00;;;;;15.80;59.15;102216.06;2091347;28;48254;-47
2021/10/08 01:44:36;;;;;;;;;56.75;46.00;;;;;15.80;59.23;102216.06;2091491;28;47194;-49
2021/10/08 01:45:36;;;;;;;;;39.60;33.40;;;;;15.80;59.70;102224.09;2091472;28;47493;-48
2021/10/08 01:46:37;;;;;;;;;27.25;25.75;;;;;15.80;59.75;102225.91;2088163;28;47582;-46
2021/10/08 01:47:37;;;;;;;;;18.25;18.25;;;;;15.79;59.28;102221.44;2091568;28;47148;-46
2021/10/08 01:48:38;;;;;;;;;12.75;11.25;;;;;15.79;59.48;102219.66;2091848;28;47055;-47
2021/10/08 01:49:38;;;;;;;;;18.50;17.50;;;;;15.79;59.65;102226.81;2090843;28;47088;-48
2021/10/08 01:50:39;;;;;;;;;13.50;13.25;;;;;15.78;59.12;102223.25;2091209;28;45370;-47
2021/10/08 01:51:40;;;;;;;;;17.25;16.50;;;;;15.77;58.97;102225.97;2090741;28;47446;-51
2021/10/08 01:52:40;;;;;;;;;14.50;13.75;;;;;15.75;59.08;102223.31;2090993;28;48291;-48
2021/10/08 01:53:40;;;;;;;;;16.75;15.00;;;;;15.74;59.05;102226.00;2091561;28;46960;-49
2021/10/08 01:54:41;;;;;;;;;11.25;10.75;;;;;15.74;59.69;102224.19;2090809;28;45356;-49
2021/10/08 01:55:41;;;;;;;;;13.75;13.75;;;;;15.75;59.09;102225.06;2082515;28;48136;-46
2021/10/08 01:56:44;;;;;;;;;11.50;11.50;;;;;15.73;59.22;102216.19;2077985;28;48556;-47
2021/10/08 01:57:45;;;;;;;;;12.60;12.60;;;;;15.71;59.60;102218.91;2090798;28;46971;-47
2021/10/08 01:58:45;;;;;;;;;12.25;12.00;;;;;15.71;59.52;102224.25;2091143;28;48031;-49
2021/10/08 01:59:46;;;;;;;;;12.75;11.75;;;;;15.71;59.16;102220.69;2090924;28;47062;-46
2021/10/08 02:00:46;;;;;;;;;14.00;14.00;;;;;15.69;59.54;102223.41;2091045;28;47676;-48
2021/10/08 02:01:47;;;;;;;;;13.00;12.75;;;;;15.69;59.27;102225.22;2091113;28;47179;-49
2021/10/08 02:02:47;;;;;;;;;12.75;12.75;;;;;15.68;59.31;102218.97;2091566;28;47958;-49
2021/10/08 02:03:47;;;;;;;;;13.50;12.50;;;;;15.68;59.59;102220.78;2091651;28;47082;-48
2021/10/08 02:04:48;;;;;;;;;12.50;12.50;;;;;15.67;59.66;102227.03;2090886;28;48050;-47
2021/10/08 02:05:48;;;;;;;;;9.75;9.75;;;;;15.66;59.99;102222.59;2090720;28;48533;-47
2021/10/08 02:06:49;;;;;;;;;13.00;12.75;;;;;15.64;59.95;102222.63;2083365;28;47136;-47
2021/10/08 02:07:50;;;;;;;;;11.80;10.80;;;;;15.65;59.55;102227.06;2089294;28;48260;-47
2021/10/08 02:08:50;;;;;;;;;13.00;12.00;;;;;15.64;59.31;102225.31;2089902;28;47103;-46
2021/10/08 02:09:51;;;;;;;;;11.00;11.00;;;;;15.63;59.41;102220.00;2091334;28;48118;-49
2021/10/08 02:10:52;;;;;;;;;10.50;10.50;;;;;15.62;59.77;102220.88;2091402;28;47317;-47
2021/10/08 02:11:52;;;;;;;;;13.75;11.75;;;;;15.60;59.50;102223.56;2091523;28;47201;-48
2021/10/08 02:12:53;;;;;;;;;12.50;12.25;;;;;15.59;59.89;102221.78;2091504;28;46814;-47
2021/10/08 02:13:53;;;;;;;;;12.50;12.50;;;;;15.58;59.62;102228.03;2091471;28;47381;-46
2021/10/08 02:14:54;;;;;;;;;13.00;13.00;;;;;15.55;60.04;102226.31;2091583;28;47142;-48
2021/10/08 02:15:54;;;;;;;;;13.00;13.00;;;;;15.55;59.89;102225.44;2091275;28;48095;-50
2021/10/08 02:16:55;;;;;;;;;13.50;13.00;;;;;15.54;59.87;102232.59;2090994;28;47075;-47
2021/10/08 02:17:55;;;;;;;;;12.75;12.50;;;;;15.54;60.04;102224.56;2090799;28;48704;-49
2021/10/08 02:18:56;;;;;;;;;13.25;13.25;;;;;15.54;59.70;102215.66;2096225;28;48387;-51
2021/10/08 02:19:57;;;;;;;;;12.80;12.20;;;;;15.52;59.75;102228.19;2097784;27;48848;-46
2021/10/08 02:20:57;;;;;;;;;15.00;13.00;;;;;15.52;59.78;102222.81;2091549;28;47409;-48
2021/10/08 02:21:58;;;;;;;;;12.75;12.75;;;;;15.50;59.83;102224.63;2090541;28;47163;-47
2021/10/08 02:22:59;;;;;;;;;11.50;11.50;;;;;15.49;60.19;102229.09;2090731;28;45422;-46
2021/10/08 02:23:59;;;;;;;;;12.00;12.00;;;;;15.49;60.29;102223.72;2091265;28;47341;-48
2021/10/08 02:25:00;;;;;;;;;11.80;11.20;;;;;15.48;60.18;102224.66;2091218;28;48089;-47
2021/10/08 02:26:00;;;;;;;;;12.25;12.00;;;;;15.47;60.14;102222.00;2091240;28;48131;-48
2021/10/08 02:27:01;;;;;;;;;13.00;13.00;;;;;15.45;59.85;102224.72;2091006;28;47164;-46
2021/10/08 02:28:02;;;;;;;;;12.00;11.50;;;;;15.45;60.50;102226.50;2090566;28;47992;-51
2021/10/08 02:29:03;;;;;;;;;13.20;11.20;;;;;15.43;60.38;102223.84;2090834;28;47591;-49
2021/10/08 02:30:04;;;;;;;;;12.50;11.00;;;;;15.44;59.98;102225.63;2091288;28;47309;-47
2021/10/08 02:31:05;;;;;;;;;16.00;15.80;;;;;15.43;60.06;102220.31;2091261;28;47074;-50
2021/10/08 02:32:06;;;;;;;;;15.50;13.25;;;;;15.42;59.97;102216.75;2091543;28;48645;-49
2021/10/08 02:33:06;;;;;;;;;13.25;13.25;;;;;15.42;60.15;102223.88;2091297;28;47097;-49
2021/10/08 02:34:06;;;;;;;;;11.00;10.25;;;;;15.41;60.33;102220.34;2091335;28;48051;-47
2021/10/08 02:35:08;;;;;;;;;15.25;14.25;;;;;15.41;60.53;102223.00;2091181;28;48357;-46
2021/10/08 02:36:09;;;;;;;;;13.20;12.60;;;;;15.40;60.32;102223.91;2082353;28;46763;-47
2021/10/08 02:37:10;;;;;;;;;14.80;12.60;;;;;15.40;60.37;102220.38;2082446;28;45406;-48
2021/10/08 02:38:10;;;;;;;;;12.00;12.00;;;;;15.39;60.05;102221.28;2091140;28;47439;-47
2021/10/08 02:39:11;;;;;;;;;12.25;12.25;;;;;15.40;60.57;102225.72;2086818;28;48352;-47
2021/10/08 02:40:12;;;;;;;;;12.50;12.50;;;;;15.39;60.41;102222.16;2089637;28;47149;-47
2021/10/08 02:41:12;;;;;;;;;12.00;11.40;;;;;15.38;60.30;102227.53;2090805;28;47146;-46
2021/10/08 02:42:13;;;;;;;;;15.50;15.50;;;;;15.38;60.22;102228.41;2091216;28;47291;-46
2021/10/08 02:43:14;;;;;;;;;16.00;14.50;;;;;15.37;60.50;102220.41;2091404;28;47331;-48
2021/10/08 02:44:15;;;;;;;;;14.00;13.25;;;;;15.35;60.16;102231.13;2091022;28;48283;-49
2021/10/08 02:45:16;;;;;;;;;14.00;14.00;;;;;15.35;60.22;102225.78;2090899;28;47469;-48
2021/10/08 02:46:16;;;;;;;;;11.20;11.00;;;;;15.34;60.16;102225.81;2091178;28;46819;-47
2021/10/08 02:47:17;;;;;;;;;12.50;11.50;;;;;15.34;60.07;102223.13;2091176;28;47087;-48
2021/10/08 02:48:17;;;;;;;;;13.00;11.50;;;;;15.31;60.52;102222.28;2091405;28;47367;-45
2021/10/08 02:49:21;;;;;;;;;12.25;12.00;;;;;15.31;60.27;102229.44;2091142;28;46903;-48
2021/10/08 02:50:23;;;;;;;;;11.20;10.60;;;;;15.29;60.34;102229.44;2091168;28;47660;-46
2021/10/08 02:51:23;;;;;;;;;12.40;11.20;;;;;15.29;60.31;102229.44;2091274;28;47321;-45
2021/10/08 02:52:24;;;;;;;;;14.00;14.00;;;;;15.27;59.97;102228.59;2090522;28;47955;-48
2021/10/08 02:53:24;;;;;;;;;14.00;14.00;;;;;15.26;60.08;102225.97;2090401;28;47161;-51
2021/10/08 02:54:24;;;;;;;;;12.75;12.00;;;;;15.24;60.10;102223.28;2082098;28;47831;-48
2021/10/08 02:55:25;;;;;;;;;13.50;13.25;;;;;15.24;60.37;102219.72;2081953;28;48304;-47
2021/10/08 02:56:26;;;;;;;;;13.50;13.00;;;;;15.23;60.60;102226.88;2083771;28;48342;-49
2021/10/08 02:57:26;;;;;;;;;13.00;13.00;;;;;15.22;60.27;102225.09;2090816;28;49108;-51
2021/10/08 02:58:26;;;;;;;;;16.00;14.25;;;;;15.21;60.48;102220.66;2090540;28;48458;-49
2021/10/08 02:59:28;;;;;;;;;13.00;12.75;;;;;15.20;60.36;102215.34;2090572;28;47504;-46
2021/10/08 03:00:29;;;;;;;;;12.80;12.00;;;;;15.19;60.25;102226.97;2091185;28;47928;-47
2021/10/08 03:01:29;;;;;;;;;13.25;13.25;;;;;15.17;60.55;102221.63;2091094;28;47579;-47
2021/10/08 03:02:29;;;;;;;;;13.75;13.25;;;;;15.17;60.39;102223.44;2091524;28;47395;-47
2021/10/08 03:03:30;;;;;;;;;13.75;13.00;;;;;15.15;60.52;102218.13;2090908;28;46114;-45
2021/10/08 03:04:31;;;;;;;;;15.00;13.00;;;;;15.15;60.84;102220.78;2091236;28;48367;-46
2021/10/08 03:05:31;;;;;;;;;13.50;13.50;;;;;15.13;60.25;102216.38;2091142;28;48032;-48
2021/10/08 03:06:32;;;;;;;;;11.25;11.25;;;;;15.13;60.41;102221.72;2091347;28;47515;-49
2021/10/08 03:07:32;;;;;;;;;13.25;13.00;;;;;15.11;60.42;102218.16;2091093;28;46355;-46
2021/10/08 03:08:33;;;;;;;;;13.75;13.75;;;;;15.10;60.37;102216.41;2091283;28;46545;-45
2021/10/08 03:09:33;;;;;;;;;13.00;13.00;;;;;15.10;60.73;102219.06;2090812;28;47069;-46
2021/10/08 03:10:35;;;;;;;;;13.00;12.25;;;;;15.08;60.60;102218.22;2086077;28;47003;-47
2021/10/08 03:11:36;;;;;;;;;11.40;11.40;;;;;15.07;60.71;102221.81;2091002;28;48113;-46
2021/10/08 03:12:37;;;;;;;;;14.20;14.00;;;;;15.06;60.43;102217.38;2091093;28;47959;-47
2021/10/08 03:13:37;;;;;;;;;14.00;13.50;;;;;15.05;60.72;102220.94;2090933;28;48165;-46
2021/10/08 03:14:37;;;;;;;;;16.00;14.50;;;;;15.03;60.48;102220.97;2090659;28;49319;-48
2021/10/08 03:15:38;;;;;;;;;14.25;13.25;;;;;15.02;60.40;102219.22;2090314;28;47017;-46
2021/10/08 03:16:38;;;;;;;;;15.00;14.00;;;;;15.01;60.93;102221.00;2090751;28;47055;-49
2021/10/08 03:17:39;;;;;;;;;11.75;11.75;;;;;15.01;60.48;102226.34;2090923;28;48214;-47
2021/10/08 03:18:39;;;;;;;;;11.50;11.50;;;;;15.00;60.38;102224.59;2092551;28;47133;-47
2021/10/08 03:19:40;;;;;;;;;13.50;13.50;;;;;15.01;60.56;102225.47;2100245;28;46210;-50
2021/10/08 03:20:41;;;;;;;;;11.60;11.60;;;;;15.00;60.71;102223.72;2092921;27;47073;-46
2021/10/08 03:21:41;;;;;;;;;17.00;15.75;;;;;14.98;60.45;102221.03;2088736;28;48135;-47
2021/10/08 03:22:42;;;;;;;;;9.25;7.50;;;;;14.97;60.59;102227.28;2092603;28;47156;-46
2021/10/08 03:23:43;;;;;;;;;6.50;4.00;;;;;14.97;60.83;102221.06;2091868;28;48454;-48
2021/10/08 03:24:43;;;;;;;;;17.25;16.00;;;;;14.96;61.02;102225.53;2092053;28;47447;-47
2021/10/08 03:25:44;;;;;;;;;15.00;13.75;;;;;14.95;60.95;102218.41;2091641;28;47712;-49
2021/10/08 03:26:45;;;;;;;;;14.75;14.00;;;;;14.95;60.63;102226.44;2091983;28;45465;-48
2021/10/08 03:27:45;;;;;;;;;12.50;12.50;;;;;14.94;60.56;102223.78;2091910;28;47346;-48
2021/10/08 03:28:46;;;;;;;;;15.25;13.50;;;;;14.93;60.65;102222.91;2092692;28;47387;-51
2021/10/08 03:29:46;;;;;;;;;12.25;12.00;;;;;14.92;60.96;102225.63;2092441;28;47407;-50
2021/10/08 03:30:47;;;;;;;;;15.25;14.50;;;;;14.90;60.66;102228.31;2092712;28;46266;-46
2021/10/08 03:31:47;;;;;;;;;14.00;11.00;;;;;14.89;60.67;102229.22;2092361;28;48111;-49
2021/10/08 03:32:47;;;;;;;;;17.25;15.50;;;;;14.87;60.82;102232.84;2091800;28;48328;-46
2021/10/08 03:33:48;;;;;;;;;15.00;15.00;;;;;14.85;60.70;102224.81;2091819;28;47116;-46
2021/10/08 03:34:48;;;;;;;;;12.00;12.00;;;;;14.86;60.80;102223.91;2092391;28;47060;-46
2021/10/08 03:35:49;;;;;;;;;15.75;15.00;;;;;14.85;61.03;102235.50;2092622;28;48263;-47
2021/10/08 03:37:02;;;;;;;;;15.50;14.00;;;;;14.85;60.80;102232.81;2092423;28;47529;-47
2021/10/08 03:38:09;;;;;;;;;16.20;13.80;;;;;14.84;60.75;102230.19;2091603;28;48412;-45
2021/10/08 03:39:15;;;;;;;;;12.00;12.00;;;;;14.83;61.06;102234.66;2091693;28;47546;-46
2021/10/08 03:40:25;;;;;;;;;14.20;14.00;;;;;14.83;61.36;102231.09;2084437;28;47277;-48
2021/10/08 03:41:26;;;;;;;;;17.20;15.00;;;;;14.82;60.99;102232.00;2090155;28;47638;-47
2021/10/08 03:42:27;;;;;;;;;13.00;13.00;;;;;14.80;61.10;102229.34;2091869;28;47186;-46
2021/10/08 03:43:28;;;;;;;;;15.00;15.00;;;;;14.80;61.14;102229.34;2091742;28;46173;-47
2021/10/08 03:44:33;;;;;;;;;15.75;15.75;;;;;14.79;60.92;102226.72;2092352;28;47343;-46
2021/10/08 03:45:43;;;;;;;;;14.40;14.40;;;;;14.79;61.14;102229.38;2092376;28;47899;-46
2021/10/08 03:46:56;;;;;;;;;16.60;16.00;;;;;14.78;60.95;102222.28;2086033;28;47434;-46
2021/10/08 03:48:19;;;;;;;;;17.20;16.40;;;;;14.76;61.06;102226.75;2088619;28;45281;-45
2021/10/08 03:49:22;;;;;;;;;12.40;12.00;;;;;14.75;60.84;102231.22;2084097;28;48481;-47
2021/10/08 03:50:23;;;;;;;;;16.00;14.60;;;;;14.73;60.95;102225.88;2092092;28;47992;-46
2021/10/08 03:51:23;;;;;;;;;15.00;15.00;;;;;14.73;60.96;102225.88;2092211;28;48090;-46
2021/10/08 03:52:24;;;;;;;;;15.50;14.25;;;;;14.72;61.30;102225.91;2092360;28;45257;-45
2021/10/08 03:53:24;;;;;;;;;17.50;17.50;;;;;14.71;61.10;102230.38;2092365;28;47091;-45
2021/10/08 03:54:24;;;;;;;;;15.00;15.00;;;;;14.70;61.17;102227.72;2092495;28;48252;-49
2021/10/08 03:55:25;;;;;;;;;16.75;15.75;;;;;14.69;61.25;102226.84;2091637;28;45413;-47
2021/10/08 03:56:27;;;;;;;;;17.75;17.50;;;;;14.68;61.01;102227.75;2091755;28;47344;-47
2021/10/08 03:57:28;;;;;;;;;16.20;16.00;;;;;14.68;61.14;102226.88;2092293;28;47257;-46
2021/10/08 03:58:28;;;;;;;;;18.25;17.75;;;;;14.67;61.09;102234.00;2092495;28;46231;-48
2021/10/08 03:59:29;;;;;;;;;11.25;11.00;;;;;14.66;61.18;102234.03;2092244;28;46353;-46
2021/10/08 04:00:30;;;;;;;;;15.50;15.50;;;;;14.64;61.03;102228.72;2091484;28;47319;-50
2021/10/08 04:01:30;;;;;;;;;18.25;18.25;;;;;14.64;61.18;102227.81;2083166;28;47183;-46
2021/10/08 04:02:31;;;;;;;;;14.75;14.75;;;;;14.63;61.31;102228.72;2087215;28;48335;-49
2021/10/08 04:03:31;;;;;;;;;17.00;15.50;;;;;14.62;61.47;102232.31;2091339;28;45339;-47
2021/10/08 04:04:31;;;;;;;;;19.00;16.50;;;;;14.61;61.54;102233.19;2091481;28;46997;-48
2021/10/08 04:05:32;;;;;;;;;16.00;15.00;;;;;14.59;61.17;102229.66;2092173;28;47218;-47
2021/10/08 04:06:35;;;;;;;;;17.75;17.75;;;;;14.58;61.50;102230.56;2092512;28;47389;-47
2021/10/08 04:07:35;;;;;;;;;18.40;16.60;;;;;14.58;61.26;102233.25;2089248;28;46939;-46
2021/10/08 04:08:36;;;;;;;;;21.00;20.00;;;;;14.57;61.33;102239.50;2092470;28;48255;-46
2021/10/08 04:09:36;;;;;;;;;17.50;17.50;;;;;14.56;61.22;102232.38;2091276;28;47974;-50
2021/10/08 04:10:37;;;;;;;;;17.50;17.50;;;;;14.55;61.44;102227.94;2092144;28;48460;-47
2021/10/08 04:11:37;;;;;;;;;19.50;18.75;;;;;14.54;61.44;102245.75;2092318;28;48276;-46
2021/10/08 04:12:38;;;;;;;;;19.75;19.75;;;;;14.54;61.36;102232.41;2091585;28;48215;-46
2021/10/08 04:13:39;;;;;;;;;19.75;16.25;;;;;14.53;61.46;102241.31;2090329;28;47130;-46
2021/10/08 04:14:39;;;;;;;;;21.25;19.75;;;;;14.52;61.51;102239.56;2083254;28;47353;-49
2021/10/08 04:15:40;;;;;;;;;16.00;16.00;;;;;14.51;61.52;102234.25;2085770;28;46230;-46
2021/10/08 04:16:40;;;;;;;;;23.50;21.25;;;;;14.50;61.84;102237.81;2091556;28;47213;-50
2021/10/08 04:17:41;;;;;;;;;25.00;22.00;;;;;14.49;61.73;102238.72;2087915;28;47380;-48
2021/10/08 04:18:41;;;;;;;;;20.00;18.25;;;;;14.48;61.56;102237.81;2092728;28;46261;-48
2021/10/08 04:19:42;;;;;;;;;21.80;20.00;;;;;14.48;61.64;102234.25;2100547;27;48112;-47
2021/10/08 04:20:43;;;;;;;;;17.75;17.75;;;;;14.48;61.95;102234.25;2094648;27;48434;-46
2021/10/08 04:21:43;;;;;;;;;17.25;15.75;;;;;14.49;61.68;102233.38;2086411;28;46197;-50
2021/10/08 04:22:43;;;;;;;;;19.50;19.00;;;;;14.50;61.86;102233.38;2090874;28;48702;-44
2021/10/08 04:23:44;;;;;;;;;21.75;19.75;;;;;14.51;61.74;102237.81;2091722;28;46877;-50
2021/10/08 04:24:44;;;;;;;;;20.75;19.50;;;;;14.52;61.88;102236.00;2092042;28;47193;-47
2021/10/08 04:25:46;;;;;;;;;17.50;16.50;;;;;14.54;61.80;102239.53;2091659;28;48178;-47
2021/10/08 04:26:46;;;;;;;;;18.80;17.80;;;;;14.54;61.67;102242.22;2089515;28;47514;-46
2021/10/08 04:27:47;;;;;;;;;19.25;19.25;;;;;14.55;61.93;102234.16;2092009;28;48183;-46
2021/10/08 04:28:47;;;;;;;;;21.50;21.50;;;;;14.55;61.80;102239.50;2089425;28;48098;-47
2021/10/08 04:29:48;;;;;;;;;22.00;18.00;;;;;14.55;61.54;102236.84;2091321;28;48112;-46
2021/10/08 04:30:48;;;;;;;;;21.25;19.75;;;;;14.54;61.75;102242.22;2091429;28;47295;-46
2021/10/08 04:31:49;;;;;;;;;22.00;18.25;;;;;14.52;61.55;102236.91;2091275;28;47035;-49
2021/10/08 04:32:50;;;;;;;;;24.75;21.25;;;;;14.50;61.69;102235.16;2099887;28;47161;-45
2021/10/08 04:33:50;;;;;;;;;22.50;20.00;;;;;14.50;61.79;102240.50;2091444;28;46325;-49
2021/10/08 04:34:51;;;;;;;;;21.50;20.25;;;;;14.50;61.81;102249.38;2091249;28;48293;-48
2021/10/08 04:35:52;;;;;;;;;23.00;19.75;;;;;14.51;61.70;102242.25;2090518;28;47188;-45
2021/10/08 04:36:52;;;;;;;;;24.20;20.20;;;;;14.51;61.73;102244.94;2091834;28;47125;-46
2021/10/08 04:37:53;;;;;;;;;22.50;21.75;;;;;14.51;62.08;102250.28;2086891;28;47569;-47